createdAt,value
2023-02-21T00:00:53.686Z,0
2023-02-21T00:06:18.981Z,0
2023-02-21T00:11:44.936Z,0
2023-02-21T00:17:07.686Z,0
2023-02-21T00:22:30.366Z,0
2023-02-21T00:27:53.111Z,0
2023-02-21T00:33:18.738Z,0
2023-02-21T00:38:50.559Z,0
2023-02-21T00:44:12.993Z,0
2023-02-21T00:49:35.784Z,0
2023-02-21T12:55:40.635Z,4.3
2023-02-21T13:01:03.282Z,4
2023-02-21T13:06:33.392Z,4.2
2023-02-21T13:11:56.433Z,4.2
2023-02-21T13:17:19.152Z,3.9
2023-02-21T13:22:41.547Z,3.4
2023-02-21T13:28:03.984Z,3.6
2023-02-21T13:33:26.463Z,3.9
2023-02-21T13:38:52.125Z,3.5
2023-02-21T13:44:14.835Z,3.9
2023-02-21T13:49:37.307Z,3.5
2023-02-21T13:54:59.678Z,3.8
2023-02-21T14:00:31.551Z,3.7
2023-02-21T14:05:54.012Z,3.4
2023-02-21T14:11:23.284Z,3.4
2023-02-21T14:16:46.074Z,3
2023-02-21T14:22:09.097Z,2.8
2023-02-21T14:27:31.519Z,1.4
2023-02-21T14:32:55.828Z,0.6
2023-02-21T14:38:20.553Z,0.6
2023-02-21T14:44:20.186Z,0.5
2023-02-21T14:49:42.253Z,0.5
2023-02-21T14:55:04.688Z,0.5
2023-02-21T15:00:26.920Z,0.4
2023-02-21T15:05:52.347Z,0.4
2023-02-21T15:11:14.911Z,0.4
2023-02-21T15:16:38.319Z,0.4
2023-02-21T15:22:00.978Z,0.4
2023-02-21T15:27:26.074Z,0.3
2023-02-21T15:32:48.808Z,0.3
2023-02-21T15:38:11.309Z,0.3
2023-02-21T15:43:55.384Z,0.3
2023-02-21T15:49:17.791Z,0.2
2023-02-21T15:54:43.194Z,0.2
2023-02-21T16:00:05.449Z,0.2
2023-02-21T16:05:28.047Z,0.2
2023-02-21T16:10:50.413Z,0.1
2023-02-21T16:16:26.724Z,0.1
2023-02-21T16:21:49.252Z,0.1
2023-02-21T16:27:11.609Z,0.1
2023-02-21T16:32:34.654Z,0.1
2023-02-21T16:55:38.589Z,0
2023-02-21T17:01:01.471Z,0
2023-02-21T17:06:24.172Z,0
2023-02-21T17:11:46.846Z,0
2023-02-21T17:17:09.368Z,0
2023-02-21T17:22:31.995Z,0
2023-02-21T17:33:36.714Z,0
2023-02-21T17:38:59.558Z,0
2023-02-21T17:44:21.869Z,0
2023-02-21T17:49:44.603Z,0
2023-02-21T17:55:07.004Z,0
2023-02-21T18:00:29.459Z,0
2023-02-21T18:05:51.984Z,0
2023-02-21T18:11:15.078Z,0
2023-02-21T18:17:26.234Z,0
2023-02-21T18:22:54.240Z,0
2023-02-21T18:28:16.561Z,0
2023-02-21T18:33:42.167Z,0
2023-02-21T18:39:07.523Z,0
2023-02-21T18:44:33.092Z,0
2023-02-21T18:49:56.528Z,0
2023-02-21T18:55:19.707Z,0
2023-02-21T19:00:42.388Z,0
2023-02-21T19:06:05.041Z,0
2023-02-21T19:11:27.648Z,0
2023-02-21T19:16:57.472Z,0
2023-02-21T19:22:19.929Z,0
2023-02-21T19:28:27.817Z,0
2023-02-21T19:33:50.570Z,0
2023-02-21T19:39:16.261Z,0
2023-02-21T19:45:16.749Z,0
2023-02-21T19:50:39.475Z,0
2023-02-21T19:56:07.692Z,0
2023-02-21T20:01:30.508Z,0
2023-02-21T20:06:53.491Z,0
2023-02-21T20:17:26.930Z,0
2023-02-21T20:22:52.663Z,0
2023-02-21T20:28:15.924Z,0
2023-02-21T20:33:38.502Z,0
2023-02-21T20:39:07.821Z,0
2023-02-21T20:44:30.380Z,0
2023-02-21T20:49:55.698Z,0
2023-02-21T20:55:21.638Z,0
2023-02-21T21:00:44.788Z,0
2023-02-21T21:06:07.614Z,0
2023-02-21T21:11:31.115Z,0
2023-02-21T21:17:04.945Z,0
2023-02-21T21:22:29.219Z,0
2023-02-21T21:27:52.089Z,0
2023-02-21T21:33:14.811Z,0
2023-02-21T21:38:40.315Z,0
2023-02-21T21:45:20.198Z,0
2023-02-21T21:50:50.884Z,0
2023-02-21T21:56:13.400Z,0
2023-02-21T22:04:43.202Z,0
2023-02-21T22:10:05.850Z,0
2023-02-21T22:15:28.725Z,0
2023-02-21T22:20:51.563Z,0
2023-02-21T22:26:16.720Z,0
2023-02-21T22:31:39.745Z,0
2023-02-21T22:37:05.826Z,0
2023-02-21T22:42:28.760Z,0
2023-02-21T22:47:51.694Z,0
2023-02-21T22:53:17.534Z,0
2023-02-21T22:58:49.693Z,0
2023-02-21T23:04:12.683Z,0
2023-02-21T23:09:35.105Z,0
2023-02-21T23:14:58.077Z,0
2023-02-21T23:20:20.492Z,0
2023-02-21T23:25:43.421Z,0
2023-02-21T23:31:06.156Z,0
2023-02-21T23:36:28.958Z,0
2023-02-21T23:41:51.278Z,0
2023-02-21T23:47:14.233Z,0
2023-02-21T23:53:01.945Z,0
2023-02-21T23:58:24.735Z,0
